sensor_id;sensor_type;location;lat;lon;timestamp;pressure;altitude;pressure_sealevel;temperature;humidity
24280;BME280;12395;42.808;23.408;2023-04-26T00:00:19;93994.72;;;7.43;100.00
24280;BME280;12395;42.808;23.408;2023-04-26T00:02:44;93975.13;;;7.33;100.00
24280;BME280;12395;42.808;23.408;2023-04-26T00:05:10;93978.78;;;7.25;100.00
24280;BME280;12395;42.808;23.408;2023-04-26T00:07:35;93968.50;;;7.17;100.00
24280;BME280;12395;42.808;23.408;2023-04-26T00:10:03;93971.38;;;7.09;100.00
24280;BME280;12395;42.808;23.408;2023-04-26T00:12:29;93974.81;;;7.10;100.00
24280;BME280;12395;42.808;23.408;2023-04-26T00:14:54;93955.81;;;7.01;100.00
24280;BME280;12395;42.808;23.408;2023-04-26T00:17:20;93973.97;;;7.16;100.00
24280;BME280;12395;42.808;23.408;2023-04-26T00:19:45;93960.03;;;7.02;100.00
24280;BME280;12395;42.808;23.408;2023-04-26T00:22:11;93949.94;;;6.99;100.00
24280;BME280;12395;42.808;23.408;2023-04-26T00:24:37;93950.69;;;7.06;100.00
24280;BME280;12395;42.808;23.408;2023-04-26T00:27:02;93935.75;;;7.00;100.00
24280;BME280;12395;42.808;23.408;2023-04-26T00:29:33;93934.31;;;7.04;100.00
24280;BME280;12395;42.808;23.408;2023-04-26T00:31:58;93925.84;;;6.89;100.00
24280;BME280;12395;42.808;23.408;2023-04-26T00:34:24;93934.81;;;6.81;100.00
24280;BME280;12395;42.808;23.408;2023-04-26T00:36:49;93941.06;;;6.80;100.00
24280;BME280;12395;42.808;23.408;2023-04-26T00:39:15;93928.38;;;6.71;100.00
24280;BME280;12395;42.808;23.408;2023-04-26T00:41:40;93929.19;;;6.71;100.00
24280;BME280;12395;42.808;23.408;2023-04-26T00:44:06;93924.34;;;6.62;100.00
24280;BME280;12395;42.808;23.408;2023-04-26T00:46:31;93928.59;;;6.63;100.00
24280;BME280;12395;42.808;23.408;2023-04-26T00:48:57;93932.44;;;6.60;100.00
24280;BME280;12395;42.808;23.408;2023-04-26T00:51:22;93929.03;;;6.53;100.00
24280;BME280;12395;42.808;23.408;2023-04-26T00:53:47;93926.78;;;6.50;100.00
24280;BME280;12395;42.808;23.408;2023-04-26T00:56:15;93922.78;;;6.48;100.00
24280;BME280;12395;42.808;23.408;2023-04-26T00:58:41;93938.72;;;6.53;100.00
24280;BME280;12395;42.808;23.408;2023-04-26T01:01:06;93917.09;;;6.38;100.00
24280;BME280;12395;42.808;23.408;2023-04-26T01:03:32;93922.59;;;6.36;100.00
24280;BME280;12395;42.808;23.408;2023-04-26T01:05:57;93913.50;;;6.26;100.00
24280;BME280;12395;42.808;23.408;2023-04-26T01:08:23;93931.69;;;6.34;100.00
24280;BME280;12395;42.808;23.408;2023-04-26T01:10:50;93945.03;;;6.39;100.00
24280;BME280;12395;42.808;23.408;2023-04-26T01:13:17;93946.25;;;6.43;100.00
24280;BME280;12395;42.808;23.408;2023-04-26T01:15:45;93940.59;;;6.39;100.00
24280;BME280;12395;42.808;23.408;2023-04-26T01:18:11;93947.22;;;6.48;100.00
24280;BME280;12395;42.808;23.408;2023-04-26T01:20:38;93962.41;;;6.46;100.00
24280;BME280;12395;42.808;23.408;2023-04-26T01:23:04;93958.78;;;6.47;100.00
24280;BME280;12395;42.808;23.408;2023-04-26T01:25:30;93934.91;;;6.36;100.00
24280;BME280;12395;42.808;23.408;2023-04-26T01:27:56;93947.47;;;6.40;100.00
24280;BME280;12395;42.808;23.408;2023-04-26T01:30:21;93934.75;;;6.31;100.00
24280;BME280;12395;42.808;23.408;2023-04-26T01:32:47;93942.22;;;6.27;100.00
24280;BME280;12395;42.808;23.408;2023-04-26T01:35:12;93932.53;;;6.14;100.00
24280;BME280;12395;42.808;23.408;2023-04-26T01:37:38;93930.09;;;6.06;100.00
24280;BME280;12395;42.808;23.408;2023-04-26T01:40:04;93930.94;;;5.94;100.00
24280;BME280;12395;42.808;23.408;2023-04-26T01:42:32;93945.06;;;5.99;100.00
24280;BME280;12395;42.808;23.408;2023-04-26T01:44:57;93932.53;;;5.88;100.00
24280;BME280;12395;42.808;23.408;2023-04-26T01:47:23;93945.88;;;5.93;100.00
24280;BME280;12395;42.808;23.408;2023-04-26T01:49:50;93953.78;;;5.93;100.00
24280;BME280;12395;42.808;23.408;2023-04-26T01:52:16;93962.25;;;5.95;100.00
24280;BME280;12395;42.808;23.408;2023-04-26T01:54:41;93940.81;;;5.79;100.00
24280;BME280;12395;42.808;23.408;2023-04-26T01:57:06;93962.84;;;5.84;100.00
24280;BME280;12395;42.808;23.408;2023-04-26T01:59:32;93970.34;;;5.94;100.00
24280;BME280;12395;42.808;23.408;2023-04-26T02:01:57;93942.63;;;5.78;100.00
24280;BME280;12395;42.808;23.408;2023-04-26T02:04:23;93955.19;;;5.96;100.00
24280;BME280;12395;42.808;23.408;2023-04-26T02:06:48;93937.00;;;5.94;100.00
24280;BME280;12395;42.808;23.408;2023-04-26T02:09:14;93957.22;;;6.20;100.00
24280;BME280;12395;42.808;23.408;2023-04-26T02:11:40;93940.19;;;6.29;100.00
24280;BME280;12395;42.808;23.408;2023-04-26T02:14:05;93907.44;;;6.12;100.00
24280;BME280;12395;42.808;23.408;2023-04-26T02:16:31;93933.31;;;6.35;100.00
24280;BME280;12395;42.808;23.408;2023-04-26T02:18:57;93912.28;;;6.35;100.00
24280;BME280;12395;42.808;23.408;2023-04-26T02:21:23;93931.88;;;6.39;100.00
24280;BME280;12395;42.808;23.408;2023-04-26T02:23:49;93924.81;;;6.33;100.00
24280;BME280;12395;42.808;23.408;2023-04-26T02:26:15;93901.56;;;6.16;100.00
24280;BME280;12395;42.808;23.408;2023-04-26T02:28:40;93905.00;;;6.23;100.00
24280;BME280;12395;42.808;23.408;2023-04-26T02:31:08;93885.22;;;6.01;100.00
24280;BME280;12395;42.808;23.408;2023-04-26T02:33:34;93902.19;;;6.05;100.00
24280;BME280;12395;42.808;23.408;2023-04-26T02:36:06;93901.19;;;6.06;100.00
24280;BME280;12395;42.808;23.408;2023-04-26T02:38:33;93899.38;;;5.87;100.00
24280;BME280;12395;42.808;23.408;2023-04-26T02:40:59;93902.19;;;5.92;100.00
24280;BME280;12395;42.808;23.408;2023-04-26T02:43:25;93914.34;;;6.00;100.00
24280;BME280;12395;42.808;23.408;2023-04-26T02:45:51;93915.56;;;5.91;100.00
24280;BME280;12395;42.808;23.408;2023-04-26T02:48:16;93909.88;;;5.81;100.00
24280;BME280;12395;42.808;23.408;2023-04-26T02:50:42;93922.63;;;5.77;100.00
24280;BME280;12395;42.808;23.408;2023-04-26T02:53:07;93934.13;;;5.83;100.00
24280;BME280;12395;42.808;23.408;2023-04-26T02:55:32;93923.81;;;5.68;100.00
24280;BME280;12395;42.808;23.408;2023-04-26T02:57:58;93957.41;;;5.92;100.00
24280;BME280;12395;42.808;23.408;2023-04-26T03:00:23;93937.78;;;5.88;100.00
24280;BME280;12395;42.808;23.408;2023-04-26T03:02:49;93933.34;;;5.89;100.00
24280;BME280;12395;42.808;23.408;2023-04-26T03:05:14;93924.03;;;5.86;100.00
24280;BME280;12395;42.808;23.408;2023-04-26T03:07:40;93924.44;;;5.83;100.00
24280;BME280;12395;42.808;23.408;2023-04-26T03:10:06;93902.97;;;5.67;100.00
24280;BME280;12395;42.808;23.408;2023-04-26T03:12:32;93907.03;;;5.69;100.00
24280;BME280;12395;42.808;23.408;2023-04-26T03:14:58;93892.69;;;5.65;100.00
24280;BME280;12395;42.808;23.408;2023-04-26T03:17:23;93918.34;;;5.76;100.00
24280;BME280;12395;42.808;23.408;2023-04-26T03:19:49;93914.72;;;5.71;100.00
24280;BME280;12395;42.808;23.408;2023-04-26T03:22:14;93898.16;;;5.64;100.00
24280;BME280;12395;42.808;23.408;2023-04-26T03:24:44;93908.88;;;5.62;100.00
24280;BME280;12395;42.808;23.408;2023-04-26T03:27:10;93902.78;;;5.55;100.00
24280;BME280;12395;42.808;23.408;2023-04-26T03:29:35;93875.91;;;5.40;100.00
24280;BME280;12395;42.808;23.408;2023-04-26T03:32:01;93874.69;;;5.42;100.00
24280;BME280;12395;42.808;23.408;2023-04-26T03:34:27;93895.72;;;5.56;100.00
24280;BME280;12395;42.808;23.408;2023-04-26T03:36:52;93887.03;;;5.55;100.00
24280;BME280;12395;42.808;23.408;2023-04-26T03:39:17;93900.56;;;5.65;100.00
24280;BME280;12395;42.808;23.408;2023-04-26T03:41:43;93890.06;;;5.65;100.00
24280;BME280;12395;42.808;23.408;2023-04-26T03:44:08;93887.63;;;5.70;100.00
24280;BME280;12395;42.808;23.408;2023-04-26T03:46:34;93885.00;;;5.70;100.00
24280;BME280;12395;42.808;23.408;2023-04-26T03:48:59;93904.44;;;5.89;100.00
24280;BME280;12395;42.808;23.408;2023-04-26T03:51:24;93907.06;;;5.89;100.00
24280;BME280;12395;42.808;23.408;2023-04-26T03:53:51;93909.91;;;5.87;100.00
24280;BME280;12395;42.808;23.408;2023-04-26T03:56:17;93907.28;;;5.87;100.00
24280;BME280;12395;42.808;23.408;2023-04-26T03:58:42;93914.56;;;5.92;100.00
24280;BME280;12395;42.808;23.408;2023-04-26T04:01:07;93927.69;;;5.98;100.00
24280;BME280;12395;42.808;23.408;2023-04-26T04:03:33;93916.97;;;5.93;100.00
24280;BME280;12395;42.808;23.408;2023-04-26T04:05:58;93935.75;;;6.16;100.00
24280;BME280;12395;42.808;23.408;2023-04-26T04:08:24;93935.75;;;6.23;100.00
24280;BME280;12395;42.808;23.408;2023-04-26T04:10:49;93939.56;;;6.34;100.00
24280;BME280;12395;42.808;23.408;2023-04-26T04:13:15;93940.38;;;6.41;100.00
24280;BME280;12395;42.808;23.408;2023-04-26T04:15:40;93938.56;;;6.48;100.00
24280;BME280;12395;42.808;23.408;2023-04-26T04:18:05;93936.09;;;6.53;100.00
24280;BME280;12395;42.808;23.408;2023-04-26T04:20:31;93951.03;;;6.65;100.00
24280;BME280;12395;42.808;23.408;2023-04-26T04:22:56;93943.56;;;6.69;100.00
24280;BME280;12395;42.808;23.408;2023-04-26T04:25:22;93955.03;;;6.87;100.00
24280;BME280;12395;42.808;23.408;2023-04-26T04:27:49;93957.88;;;6.86;100.00
24280;BME280;12395;42.808;23.408;2023-04-26T04:30:16;93942.88;;;6.86;100.00
24280;BME280;12395;42.808;23.408;2023-04-26T04:32:41;93951.75;;;6.98;100.00
24280;BME280;12395;42.808;23.408;2023-04-26T04:35:11;93953.16;;;7.08;100.00
24280;BME280;12395;42.808;23.408;2023-04-26T04:37:36;93935.53;;;6.95;100.00
24280;BME280;12395;42.808;23.408;2023-04-26T04:40:03;93963.66;;;7.14;100.00
24280;BME280;12395;42.808;23.408;2023-04-26T04:42:29;93958.16;;;7.16;100.00
24280;BME280;12395;42.808;23.408;2023-04-26T04:44:54;93955.28;;;7.24;100.00
24280;BME280;12395;42.808;23.408;2023-04-26T04:47:21;93944.31;;;7.33;100.00
24280;BME280;12395;42.808;23.408;2023-04-26T04:49:46;93950.47;;;7.52;100.00
24280;BME280;12395;42.808;23.408;2023-04-26T04:52:12;93955.59;;;7.78;100.00
24280;BME280;12395;42.808;23.408;2023-04-26T04:54:37;93952.78;;;7.98;100.00
24280;BME280;12395;42.808;23.408;2023-04-26T04:57:03;93953.09;;;8.14;100.00
24280;BME280;12395;42.808;23.408;2023-04-26T04:59:29;93958.59;;;8.37;100.00
24280;BME280;12395;42.808;23.408;2023-04-26T05:01:55;93964.44;;;8.64;100.00
24280;BME280;12395;42.808;23.408;2023-04-26T05:04:21;93962.03;;;8.81;100.00
24280;BME280;12395;42.808;23.408;2023-04-26T05:06:46;93947.06;;;8.93;100.00
24280;BME280;12395;42.808;23.408;2023-04-26T05:09:11;93921.81;;;8.97;100.00
24280;BME280;12395;42.808;23.408;2023-04-26T05:11:37;93971.03;;;9.46;100.00
24280;BME280;12395;42.808;23.408;2023-04-26T05:14:02;93955.75;;;9.48;100.00
24280;BME280;12395;42.808;23.408;2023-04-26T05:16:28;93974.38;;;9.71;100.00
24280;BME280;12395;42.808;23.408;2023-04-26T05:18:53;93967.63;;;9.86;100.00
24280;BME280;12395;42.808;23.408;2023-04-26T05:21:18;93972.72;;;9.99;100.00
24280;BME280;12395;42.808;23.408;2023-04-26T05:23:44;93981.09;;;10.26;100.00
24280;BME280;12395;42.808;23.408;2023-04-26T05:26:14;93983.75;;;10.38;100.00
24280;BME280;12395;42.808;23.408;2023-04-26T05:28:40;93986.53;;;10.54;100.00
24280;BME280;12395;42.808;23.408;2023-04-26T05:31:08;93986.88;;;10.69;100.00
24280;BME280;12395;42.808;23.408;2023-04-26T05:33:34;93980.22;;;10.78;100.00
24280;BME280;12395;42.808;23.408;2023-04-26T05:36:00;93978.34;;;10.91;100.00
24280;BME280;12395;42.808;23.408;2023-04-26T05:38:26;93989.88;;;11.08;100.00
24280;BME280;12395;42.808;23.408;2023-04-26T05:40:51;93987.47;;;11.06;100.00
24280;BME280;12395;42.808;23.408;2023-04-26T05:43:16;93982.03;;;11.13;100.00
24280;BME280;12395;42.808;23.408;2023-04-26T05:45:55;93991.81;;;11.24;100.00
24280;BME280;12395;42.808;23.408;2023-04-26T05:48:22;94005.78;;;11.19;99.76
24280;BME280;12395;42.808;23.408;2023-04-26T05:50:48;93996.44;;;11.17;100.00
24280;BME280;12395;42.808;23.408;2023-04-26T05:53:14;94003.81;;;11.26;100.00
24280;BME280;12395;42.808;23.408;2023-04-26T05:55:41;94001.97;;;11.27;100.00
24280;BME280;12395;42.808;23.408;2023-04-26T05:58:07;94009.06;;;11.38;100.00
24280;BME280;12395;42.808;23.408;2023-04-26T06:00:32;93995.59;;;11.39;100.00
24280;BME280;12395;42.808;23.408;2023-04-26T06:02:58;94010.00;;;11.32;97.86
24280;BME280;12395;42.808;23.408;2023-04-26T06:05:23;94004.00;;;11.36;97.47
24280;BME280;12395;42.808;23.408;2023-04-26T06:07:50;94004.69;;;11.43;96.92
24280;BME280;12395;42.808;23.408;2023-04-26T06:10:16;94007.88;;;11.57;95.80
24280;BME280;12395;42.808;23.408;2023-04-26T06:12:41;94016.72;;;11.74;93.07
24280;BME280;12395;42.808;23.408;2023-04-26T06:15:07;94010.72;;;11.79;95.12
24280;BME280;12395;42.808;23.408;2023-04-26T06:17:33;93978.66;;;11.80;95.28
24280;BME280;12395;42.808;23.408;2023-04-26T06:19:58;94013.66;;;12.22;96.66
24280;BME280;12395;42.808;23.408;2023-04-26T06:22:24;94014.88;;;12.31;92.81
24280;BME280;12395;42.808;23.408;2023-04-26T06:24:50;94009.81;;;12.29;90.30
24280;BME280;12395;42.808;23.408;2023-04-26T06:27:15;94012.09;;;12.37;89.43
24280;BME280;12395;42.808;23.408;2023-04-26T06:29:41;94008.38;;;12.38;90.75
24280;BME280;12395;42.808;23.408;2023-04-26T06:32:08;94012.25;;;12.48;88.72
24280;BME280;12395;42.808;23.408;2023-04-26T06:34:33;94012.81;;;12.50;89.01
24280;BME280;12395;42.808;23.408;2023-04-26T06:36:59;94001.72;;;12.53;89.13
24280;BME280;12395;42.808;23.408;2023-04-26T06:39:25;93986.00;;;12.51;91.13
24280;BME280;12395;42.808;23.408;2023-04-26T06:41:50;94006.47;;;12.67;89.19
24280;BME280;12395;42.808;23.408;2023-04-26T06:44:15;94009.03;;;12.79;88.05
24280;BME280;12395;42.808;23.408;2023-04-26T06:46:41;93994.88;;;12.73;87.39
24280;BME280;12395;42.808;23.408;2023-04-26T06:49:06;94004.91;;;12.88;88.52
24280;BME280;12395;42.808;23.408;2023-04-26T06:51:32;93995.91;;;12.89;91.27
24280;BME280;12395;42.808;23.408;2023-04-26T06:53:57;94013.72;;;13.05;88.36
24280;BME280;12395;42.808;23.408;2023-04-26T06:56:25;93986.31;;;13.21;88.70
24280;BME280;12395;42.808;23.408;2023-04-26T06:59:04;94011.03;;;13.60;88.53
24280;BME280;12395;42.808;23.408;2023-04-26T07:01:30;94003.44;;;13.73;86.57
24280;BME280;12395;42.808;23.408;2023-04-26T07:03:58;94005.88;;;13.75;85.01
24280;BME280;12395;42.808;23.408;2023-04-26T07:06:26;94020.97;;;13.69;82.39
24280;BME280;12395;42.808;23.408;2023-04-26T07:08:51;94001.91;;;13.77;82.23
24280;BME280;12395;42.808;23.408;2023-04-26T07:11:17;94008.91;;;13.83;83.69
24280;BME280;12395;42.808;23.408;2023-04-26T07:13:43;94012.69;;;13.87;85.12
24280;BME280;12395;42.808;23.408;2023-04-26T07:16:08;94017.75;;;13.67;85.39
24280;BME280;12395;42.808;23.408;2023-04-26T07:18:34;94009.22;;;13.87;85.61
24280;BME280;12395;42.808;23.408;2023-04-26T07:20:59;93998.31;;;13.88;83.11
24280;BME280;12395;42.808;23.408;2023-04-26T07:23:25;94008.22;;;13.93;82.30
24280;BME280;12395;42.808;23.408;2023-04-26T07:25:50;94010.97;;;13.76;80.97
24280;BME280;12395;42.808;23.408;2023-04-26T07:28:15;94008.56;;;13.75;79.68
24280;BME280;12395;42.808;23.408;2023-04-26T07:30:41;94017.56;;;13.74;79.07
24280;BME280;12395;42.808;23.408;2023-04-26T07:33:06;94010.59;;;13.68;79.99
24280;BME280;12395;42.808;23.408;2023-04-26T07:35:32;94007.00;;;13.57;78.35
24280;BME280;12395;42.808;23.408;2023-04-26T07:37:59;94023.63;;;13.69;79.22
24280;BME280;12395;42.808;23.408;2023-04-26T07:40:25;94010.25;;;13.64;75.96
24280;BME280;12395;42.808;23.408;2023-04-26T07:42:51;94019.22;;;14.02;75.47
24280;BME280;12395;42.808;23.408;2023-04-26T07:45:17;94014.75;;;14.07;76.14
24280;BME280;12395;42.808;23.408;2023-04-26T07:47:43;94017.56;;;13.96;76.31
24280;BME280;12395;42.808;23.408;2023-04-26T07:50:09;94000.13;;;13.83;77.73
24280;BME280;12395;42.808;23.408;2023-04-26T07:52:35;94021.44;;;14.10;79.84
24280;BME280;12395;42.808;23.408;2023-04-26T07:55:01;94018.28;;;14.13;75.21
24280;BME280;12395;42.808;23.408;2023-04-26T07:57:26;94027.69;;;14.20;75.02
24280;BME280;12395;42.808;23.408;2023-04-26T07:59:51;94023.06;;;14.11;71.95
24280;BME280;12395;42.808;23.408;2023-04-26T08:02:17;94015.47;;;13.98;73.71
24280;BME280;12395;42.808;23.408;2023-04-26T08:04:47;94025.75;;;14.16;73.63
24280;BME280;12395;42.808;23.408;2023-04-26T08:07:14;94018.75;;;14.05;76.53
24280;BME280;12395;42.808;23.408;2023-04-26T08:09:39;94017.94;;;14.04;75.25
24280;BME280;12395;42.808;23.408;2023-04-26T08:12:05;94011.78;;;14.04;75.29
24280;BME280;12395;42.808;23.408;2023-04-26T08:14:30;94004.06;;;14.02;74.24
24280;BME280;12395;42.808;23.408;2023-04-26T08:16:57;94014.66;;;13.54;76.17
24280;BME280;12395;42.808;23.408;2023-04-26T08:19:23;93994.16;;;13.33;77.26
24280;BME280;12395;42.808;23.408;2023-04-26T08:21:48;94009.75;;;13.46;77.64
24280;BME280;12395;42.808;23.408;2023-04-26T08:24:13;93999.38;;;13.44;78.59
24280;BME280;12395;42.808;23.408;2023-04-26T08:26:39;93991.94;;;13.46;76.05
24280;BME280;12395;42.808;23.408;2023-04-26T08:29:05;94018.63;;;13.51;76.88
24280;BME280;12395;42.808;23.408;2023-04-26T08:31:30;94011.22;;;13.53;77.30
24280;BME280;12395;42.808;23.408;2023-04-26T08:33:56;94012.94;;;13.43;76.21
24280;BME280;12395;42.808;23.408;2023-04-26T08:36:21;94011.06;;;13.43;76.67
24280;BME280;12395;42.808;23.408;2023-04-26T08:38:46;94011.22;;;13.53;73.10
24280;BME280;12395;42.808;23.408;2023-04-26T08:41:12;94020.41;;;13.67;72.68
24280;BME280;12395;42.808;23.408;2023-04-26T08:43:41;94013.06;;;13.74;72.45
24280;BME280;12395;42.808;23.408;2023-04-26T08:46:10;94010.38;;;13.96;73.05
24280;BME280;12395;42.808;23.408;2023-04-26T08:48:36;94017.78;;;14.16;70.77
24280;BME280;12395;42.808;23.408;2023-04-26T08:51:02;94001.03;;;14.42;72.62
24280;BME280;12395;42.808;23.408;2023-04-26T08:53:30;93993.63;;;14.49;72.96
24280;BME280;12395;42.808;23.408;2023-04-26T08:55:58;94020.56;;;14.79;73.45
24280;BME280;12395;42.808;23.408;2023-04-26T08:58:25;94016.09;;;14.90;69.52
24280;BME280;12395;42.808;23.408;2023-04-26T09:00:51;94015.13;;;15.06;66.32
24280;BME280;12395;42.808;23.408;2023-04-26T09:03:16;94018.94;;;15.15;66.40
24280;BME280;12395;42.808;23.408;2023-04-26T09:05:42;94015.22;;;15.16;67.64
24280;BME280;12395;42.808;23.408;2023-04-26T09:08:13;94015.47;;;15.14;66.41
24280;BME280;12395;42.808;23.408;2023-04-26T09:10:40;94012.69;;;14.94;67.64
24280;BME280;12395;42.808;23.408;2023-04-26T09:13:05;94030.06;;;15.02;59.51
24280;BME280;12395;42.808;23.408;2023-04-26T09:15:31;94024.50;;;15.08;66.68
24280;BME280;12395;42.808;23.408;2023-04-26T09:18:14;94014.06;;;15.02;65.19
24280;BME280;12395;42.808;23.408;2023-04-26T09:20:40;94016.66;;;15.33;66.76
24280;BME280;12395;42.808;23.408;2023-04-26T09:23:07;94018.31;;;15.39;60.42
24280;BME280;12395;42.808;23.408;2023-04-26T09:25:34;94023.75;;;15.55;57.26
24280;BME280;12395;42.808;23.408;2023-04-26T09:28:01;94036.13;;;15.29;59.06
24280;BME280;12395;42.808;23.408;2023-04-26T09:30:28;94032.50;;;15.03;64.19
24280;BME280;12395;42.808;23.408;2023-04-26T09:32:57;94027.59;;;14.90;65.54
24280;BME280;12395;42.808;23.408;2023-04-26T09:37:59;94025.00;;;14.42;64.67
24280;BME280;12395;42.808;23.408;2023-04-26T09:40:27;94031.41;;;14.41;61.81
24280;BME280;12395;42.808;23.408;2023-04-26T09:43:20;94035.31;;;14.12;60.11
24280;BME280;12395;42.808;23.408;2023-04-26T09:45:47;94039.59;;;13.69;57.88
24280;BME280;12395;42.808;23.408;2023-04-26T09:50:52;94035.88;;;13.49;62.92
24280;BME280;12395;42.808;23.408;2023-04-26T09:55:51;94020.16;;;13.47;67.96
24280;BME280;12395;42.808;23.408;2023-04-26T09:58:17;94023.16;;;13.51;68.56
24280;BME280;12395;42.808;23.408;2023-04-26T10:00:42;94023.56;;;13.64;70.53
24280;BME280;12395;42.808;23.408;2023-04-26T10:03:09;94016.75;;;13.73;66.36
24280;BME280;12395;42.808;23.408;2023-04-26T10:05:36;94019.97;;;13.75;65.62
24280;BME280;12395;42.808;23.408;2023-04-26T10:08:02;94027.69;;;13.99;64.54
24280;BME280;12395;42.808;23.408;2023-04-26T10:10:29;94033.09;;;14.04;63.91
24280;BME280;12395;42.808;23.408;2023-04-26T10:12:55;94002.06;;;13.92;63.29
24280;BME280;12395;42.808;23.408;2023-04-26T10:15:20;94033.75;;;14.16;62.01
24280;BME280;12395;42.808;23.408;2023-04-26T10:17:46;94032.22;;;14.20;62.70
24280;BME280;12395;42.808;23.408;2023-04-26T10:20:13;94032.81;;;14.27;59.27
24280;BME280;12395;42.808;23.408;2023-04-26T10:22:44;94032.97;;;14.37;57.13
24280;BME280;12395;42.808;23.408;2023-04-26T10:25:10;94026.91;;;14.46;56.64
24280;BME280;12395;42.808;23.408;2023-04-26T10:30:12;94030.38;;;15.05;57.73
24280;BME280;12395;42.808;23.408;2023-04-26T10:35:28;94020.91;;;15.29;53.73
24280;BME280;12395;42.808;23.408;2023-04-26T10:40:37;94022.63;;;15.97;51.94
24280;BME280;12395;42.808;23.408;2023-04-26T10:53:23;94014.28;;;15.89;48.30
24280;BME280;12395;42.808;23.408;2023-04-26T10:55:49;94024.09;;;15.68;49.76
24280;BME280;12395;42.808;23.408;2023-04-26T10:58:32;94022.06;;;15.02;48.85
24280;BME280;12395;42.808;23.408;2023-04-26T11:03:30;94014.66;;;14.77;51.13
24280;BME280;12395;42.808;23.408;2023-04-26T11:05:56;94014.47;;;14.52;50.45
24280;BME280;12395;42.808;23.408;2023-04-26T11:08:29;94011.81;;;14.57;50.42
24280;BME280;12395;42.808;23.408;2023-04-26T11:13:37;94016.38;;;14.88;50.38
24280;BME280;12395;42.808;23.408;2023-04-26T11:16:05;94020.69;;;14.99;49.45
24280;BME280;12395;42.808;23.408;2023-04-26T11:18:31;94019.16;;;15.03;48.51
24280;BME280;12395;42.808;23.408;2023-04-26T11:20:57;94015.56;;;15.29;49.68
24280;BME280;12395;42.808;23.408;2023-04-26T11:23:24;94021.28;;;15.43;47.33
24280;BME280;12395;42.808;23.408;2023-04-26T11:25:49;94011.22;;;15.55;49.01
24280;BME280;12395;42.808;23.408;2023-04-26T11:28:17;94020.69;;;15.83;45.64
24280;BME280;12395;42.808;23.408;2023-04-26T11:30:43;94004.06;;;15.66;47.60
24280;BME280;12395;42.808;23.408;2023-04-26T11:33:16;94016.00;;;15.53;48.58
24280;BME280;12395;42.808;23.408;2023-04-26T11:35:43;94017.09;;;15.57;46.44
24280;BME280;12395;42.808;23.408;2023-04-26T11:38:08;94013.09;;;15.60;46.94
24280;BME280;12395;42.808;23.408;2023-04-26T11:40:34;94024.66;;;15.75;49.39
24280;BME280;12395;42.808;23.408;2023-04-26T11:43:03;94017.50;;;15.86;47.19
24280;BME280;12395;42.808;23.408;2023-04-26T11:45:34;94026.06;;;15.88;47.49
24280;BME280;12395;42.808;23.408;2023-04-26T11:48:03;94015.03;;;15.74;46.01
24280;BME280;12395;42.808;23.408;2023-04-26T11:50:36;94003.81;;;15.67;45.09
24280;BME280;12395;42.808;23.408;2023-04-26T11:53:04;94006.28;;;15.84;45.39
24280;BME280;12395;42.808;23.408;2023-04-26T11:55:30;94016.97;;;15.84;45.72
24280;BME280;12395;42.808;23.408;2023-04-26T11:57:57;94024.13;;;15.78;44.34
24280;BME280;12395;42.808;23.408;2023-04-26T12:00:23;94010.47;;;15.70;44.01
24280;BME280;12395;42.808;23.408;2023-04-26T12:02:49;93998.53;;;15.82;44.47
24280;BME280;12395;42.808;23.408;2023-04-26T12:05:26;94011.66;;;15.94;44.44
24280;BME280;12395;42.808;23.408;2023-04-26T12:07:53;94020.22;;;15.91;44.78
24280;BME280;12395;42.808;23.408;2023-04-26T12:10:23;94010.34;;;15.44;42.84
24280;BME280;12395;42.808;23.408;2023-04-26T12:12:50;94003.69;;;15.47;43.63
24280;BME280;12395;42.808;23.408;2023-04-26T12:15:17;93998.00;;;15.38;44.75
24280;BME280;12395;42.808;23.408;2023-04-26T12:20:31;94022.25;;;14.90;45.69
24280;BME280;12395;42.808;23.408;2023-04-26T12:22:58;94003.47;;;14.75;46.21
24280;BME280;12395;42.808;23.408;2023-04-26T12:25:23;94005.78;;;14.66;44.90
24280;BME280;12395;42.808;23.408;2023-04-26T12:27:49;93995.47;;;14.48;45.78
24280;BME280;12395;42.808;23.408;2023-04-26T12:30:14;94015.34;;;14.62;46.65
24280;BME280;12395;42.808;23.408;2023-04-26T12:32:40;94000.88;;;14.53;47.05
24280;BME280;12395;42.808;23.408;2023-04-26T12:35:06;93991.47;;;14.46;45.81
24280;BME280;12395;42.808;23.408;2023-04-26T12:37:31;94004.56;;;14.52;47.63
24280;BME280;12395;42.808;23.408;2023-04-26T12:39:57;93996.91;;;14.56;48.07
24280;BME280;12395;42.808;23.408;2023-04-26T12:42:22;93988.91;;;14.56;47.03
24280;BME280;12395;42.808;23.408;2023-04-26T12:44:48;93999.56;;;14.56;48.35
24280;BME280;12395;42.808;23.408;2023-04-26T12:47:13;93992.81;;;14.48;46.36
24280;BME280;12395;42.808;23.408;2023-04-26T12:49:38;93986.00;;;14.31;48.23
24280;BME280;12395;42.808;23.408;2023-04-26T12:52:04;93993.00;;;14.37;50.51
24280;BME280;12395;42.808;23.408;2023-04-26T12:54:29;93996.22;;;14.39;51.75
24280;BME280;12395;42.808;23.408;2023-04-26T12:56:55;93979.88;;;14.30;52.88
24280;BME280;12395;42.808;23.408;2023-04-26T12:59:20;93984.19;;;14.36;51.64
24280;BME280;12395;42.808;23.408;2023-04-26T13:01:45;93976.31;;;14.25;52.22
24280;BME280;12395;42.808;23.408;2023-04-26T13:04:11;93984.94;;;14.32;53.11
24280;BME280;12395;42.808;23.408;2023-04-26T13:06:37;93977.63;;;14.49;53.47
24280;BME280;12395;42.808;23.408;2023-04-26T13:09:02;93995.91;;;14.67;53.78
24280;BME280;12395;42.808;23.408;2023-04-26T13:11:28;93997.72;;;14.93;52.31
24280;BME280;12395;42.808;23.408;2023-04-26T13:13:53;93996.00;;;15.14;51.77
24280;BME280;12395;42.808;23.408;2023-04-26T13:16:19;94002.63;;;15.06;48.44
24280;BME280;12395;42.808;23.408;2023-04-26T13:18:44;94006.69;;;15.14;48.81